sensor_id;sensor_type;location;lat;lon;timestamp;P1;durP1;ratioP1;P2;durP2;ratioP2
3726;SDS011;1879;45.876;12.300;2022-07-30T00:01:06;3.40;;;3.10;;
3726;SDS011;1879;45.876;12.300;2022-07-30T00:03:33;7.43;;;3.20;;
3726;SDS011;1879;45.876;12.300;2022-07-30T00:06:00;3.50;;;3.13;;
3726;SDS011;1879;45.876;12.300;2022-07-30T00:08:27;3.83;;;3.40;;
3726;SDS011;1879;45.876;12.300;2022-07-30T00:10:55;3.50;;;3.20;;
3726;SDS011;1879;45.876;12.300;2022-07-30T00:13:22;3.10;;;2.90;;
3726;SDS011;1879;45.876;12.300;2022-07-30T00:15:50;3.43;;;3.13;;
3726;SDS011;1879;45.876;12.300;2022-07-30T00:18:17;3.83;;;3.53;;
3726;SDS011;1879;45.876;12.300;2022-07-30T00:20:44;3.50;;;3.20;;
3726;SDS011;1879;45.876;12.300;2022-07-30T00:23:11;4.00;;;3.47;;
3726;SDS011;1879;45.876;12.300;2022-07-30T00:25:38;5.40;;;3.40;;
3726;SDS011;1879;45.876;12.300;2022-07-30T00:28:05;3.70;;;3.20;;
3726;SDS011;1879;45.876;12.300;2022-07-30T00:30:32;3.70;;;3.40;;
3726;SDS011;1879;45.876;12.300;2022-07-30T00:33:01;3.83;;;3.43;;
3726;SDS011;1879;45.876;12.300;2022-07-30T00:35:28;3.80;;;3.50;;
3726;SDS011;1879;45.876;12.300;2022-07-30T00:37:55;3.90;;;3.60;;
3726;SDS011;1879;45.876;12.300;2022-07-30T00:40:22;4.10;;;3.47;;
3726;SDS011;1879;45.876;12.300;2022-07-30T00:42:49;5.83;;;3.30;;
3726;SDS011;1879;45.876;12.300;2022-07-30T00:45:16;4.37;;;3.97;;
3726;SDS011;1879;45.876;12.300;2022-07-30T00:47:43;4.07;;;3.70;;
3726;SDS011;1879;45.876;12.300;2022-07-30T00:50:12;4.30;;;3.90;;
3726;SDS011;1879;45.876;12.300;2022-07-30T00:52:40;4.77;;;3.63;;
3726;SDS011;1879;45.876;12.300;2022-07-30T00:55:08;4.60;;;4.20;;
3726;SDS011;1879;45.876;12.300;2022-07-30T00:57:36;3.93;;;3.63;;
3726;SDS011;1879;45.876;12.300;2022-07-30T01:00:05;5.87;;;4.13;;
3726;SDS011;1879;45.876;12.300;2022-07-30T01:02:34;4.33;;;3.73;;
3726;SDS011;1879;45.876;12.300;2022-07-30T01:05:02;5.10;;;4.57;;
3726;SDS011;1879;45.876;12.300;2022-07-30T01:07:31;4.63;;;4.23;;
3726;SDS011;1879;45.876;12.300;2022-07-30T01:09:58;8.13;;;4.50;;
3726;SDS011;1879;45.876;12.300;2022-07-30T01:12:25;4.73;;;3.93;;
3726;SDS011;1879;45.876;12.300;2022-07-30T01:14:54;4.20;;;3.90;;
3726;SDS011;1879;45.876;12.300;2022-07-30T01:17:23;4.30;;;4.00;;
3726;SDS011;1879;45.876;12.300;2022-07-30T01:19:50;4.97;;;3.87;;
3726;SDS011;1879;45.876;12.300;2022-07-30T01:22:34;4.60;;;4.20;;
3726;SDS011;1879;45.876;12.300;2022-07-30T01:25:10;5.63;;;4.53;;
3726;SDS011;1879;45.876;12.300;2022-07-30T01:27:44;4.07;;;3.77;;
3726;SDS011;1879;45.876;12.300;2022-07-30T01:30:16;4.70;;;4.30;;
3726;SDS011;1879;45.876;12.300;2022-07-30T01:32:45;4.83;;;4.37;;
3726;SDS011;1879;45.876;12.300;2022-07-30T01:35:13;5.53;;;4.93;;
3726;SDS011;1879;45.876;12.300;2022-07-30T01:37:41;5.00;;;4.50;;
3726;SDS011;1879;45.876;12.300;2022-07-30T01:40:10;5.57;;;5.13;;
3726;SDS011;1879;45.876;12.300;2022-07-30T01:42:39;5.87;;;4.00;;
3726;SDS011;1879;45.876;12.300;2022-07-30T01:45:10;5.13;;;4.53;;
3726;SDS011;1879;45.876;12.300;2022-07-30T01:47:38;5.03;;;4.63;;
3726;SDS011;1879;45.876;12.300;2022-07-30T01:50:08;5.50;;;5.00;;
3726;SDS011;1879;45.876;12.300;2022-07-30T01:52:39;4.53;;;4.10;;
3726;SDS011;1879;45.876;12.300;2022-07-30T01:55:09;6.07;;;4.43;;
3726;SDS011;1879;45.876;12.300;2022-07-30T01:57:41;4.30;;;3.93;;
3726;SDS011;1879;45.876;12.300;2022-07-30T02:00:11;4.57;;;4.17;;
3726;SDS011;1879;45.876;12.300;2022-07-30T02:02:39;4.83;;;4.30;;
3726;SDS011;1879;45.876;12.300;2022-07-30T02:05:06;4.40;;;4.00;;
3726;SDS011;1879;45.876;12.300;2022-07-30T02:07:35;5.40;;;4.40;;
3726;SDS011;1879;45.876;12.300;2022-07-30T02:10:07;4.50;;;4.20;;
3726;SDS011;1879;45.876;12.300;2022-07-30T02:12:38;4.60;;;4.20;;
3726;SDS011;1879;45.876;12.300;2022-07-30T02:15:13;4.73;;;4.43;;
3726;SDS011;1879;45.876;12.300;2022-07-30T02:17:49;5.50;;;5.00;;
3726;SDS011;1879;45.876;12.300;2022-07-30T02:20:21;5.80;;;5.40;;
3726;SDS011;1879;45.876;12.300;2022-07-30T02:22:51;7.43;;;6.70;;
3726;SDS011;1879;45.876;12.300;2022-07-30T02:25:24;6.27;;;5.77;;
3726;SDS011;1879;45.876;12.300;2022-07-30T02:27:57;6.60;;;5.93;;
3726;SDS011;1879;45.876;12.300;2022-07-30T02:30:31;4.57;;;4.17;;
3726;SDS011;1879;45.876;12.300;2022-07-30T02:33:06;7.63;;;6.83;;
3726;SDS011;1879;45.876;12.300;2022-07-30T02:35:37;6.10;;;5.50;;
3726;SDS011;1879;45.876;12.300;2022-07-30T02:38:04;7.57;;;6.80;;
3726;SDS011;1879;45.876;12.300;2022-07-30T02:40:33;6.20;;;5.70;;
3726;SDS011;1879;45.876;12.300;2022-07-30T02:43:02;6.60;;;6.00;;
3726;SDS011;1879;45.876;12.300;2022-07-30T02:45:29;7.40;;;6.70;;
3726;SDS011;1879;45.876;12.300;2022-07-30T02:47:56;7.43;;;6.73;;
3726;SDS011;1879;45.876;12.300;2022-07-30T02:50:27;6.87;;;6.20;;
3726;SDS011;1879;45.876;12.300;2022-07-30T02:52:58;6.50;;;5.63;;
3726;SDS011;1879;45.876;12.300;2022-07-30T02:55:27;6.73;;;6.03;;
3726;SDS011;1879;45.876;12.300;2022-07-30T02:57:56;7.03;;;6.33;;
3726;SDS011;1879;45.876;12.300;2022-07-30T03:00:30;7.10;;;6.33;;
3726;SDS011;1879;45.876;12.300;2022-07-30T03:02:58;8.40;;;7.60;;
3726;SDS011;1879;45.876;12.300;2022-07-30T03:05:27;8.80;;;5.80;;
3726;SDS011;1879;45.876;12.300;2022-07-30T03:07:55;7.60;;;6.73;;
3726;SDS011;1879;45.876;12.300;2022-07-30T03:10:23;7.77;;;7.03;;
3726;SDS011;1879;45.876;12.300;2022-07-30T03:12:52;6.80;;;6.30;;
3726;SDS011;1879;45.876;12.300;2022-07-30T03:15:21;7.63;;;6.90;;
3726;SDS011;1879;45.876;12.300;2022-07-30T03:17:51;8.13;;;6.93;;
3726;SDS011;1879;45.876;12.300;2022-07-30T03:20:20;7.60;;;7.00;;
3726;SDS011;1879;45.876;12.300;2022-07-30T03:22:51;7.33;;;6.63;;
3726;SDS011;1879;45.876;12.300;2022-07-30T03:25:21;8.37;;;7.47;;
3726;SDS011;1879;45.876;12.300;2022-07-30T03:27:52;7.60;;;6.80;;
3726;SDS011;1879;45.876;12.300;2022-07-30T03:30:23;8.40;;;7.50;;
3726;SDS011;1879;45.876;12.300;2022-07-30T03:32:51;7.60;;;6.90;;
3726;SDS011;1879;45.876;12.300;2022-07-30T03:35:20;7.30;;;6.60;;
3726;SDS011;1879;45.876;12.300;2022-07-30T03:37:51;6.10;;;5.60;;
3726;SDS011;1879;45.876;12.300;2022-07-30T03:40:19;6.30;;;5.70;;
3726;SDS011;1879;45.876;12.300;2022-07-30T03:42:48;7.37;;;6.67;;
3726;SDS011;1879;45.876;12.300;2022-07-30T03:45:18;6.17;;;5.67;;
3726;SDS011;1879;45.876;12.300;2022-07-30T03:47:47;8.67;;;7.77;;
3726;SDS011;1879;45.876;12.300;2022-07-30T03:50:21;9.90;;;8.90;;
3726;SDS011;1879;45.876;12.300;2022-07-30T03:52:50;14.30;;;10.20;;
3726;SDS011;1879;45.876;12.300;2022-07-30T03:55:17;10.37;;;9.37;;
3726;SDS011;1879;45.876;12.300;2022-07-30T03:57:44;10.77;;;9.53;;
3726;SDS011;1879;45.876;12.300;2022-07-30T04:00:12;9.50;;;8.70;;
3726;SDS011;1879;45.876;12.300;2022-07-30T04:02:41;9.47;;;8.13;;
3726;SDS011;1879;45.876;12.300;2022-07-30T04:05:10;10.10;;;9.20;;
3726;SDS011;1879;45.876;12.300;2022-07-30T04:07:37;10.33;;;9.37;;
3726;SDS011;1879;45.876;12.300;2022-07-30T04:10:04;9.23;;;8.37;;
3726;SDS011;1879;45.876;12.300;2022-07-30T04:12:32;7.20;;;6.50;;
3726;SDS011;1879;45.876;12.300;2022-07-30T04:14:59;12.03;;;8.57;;
3726;SDS011;1879;45.876;12.300;2022-07-30T04:17:28;11.30;;;10.20;;
3726;SDS011;1879;45.876;12.300;2022-07-30T04:20:00;10.37;;;9.37;;
3726;SDS011;1879;45.876;12.300;2022-07-30T04:22:34;12.40;;;11.10;;
3726;SDS011;1879;45.876;12.300;2022-07-30T04:25:03;12.60;;;11.40;;
3726;SDS011;1879;45.876;12.300;2022-07-30T04:27:31;12.97;;;10.20;;
3726;SDS011;1879;45.876;12.300;2022-07-30T04:29:59;10.60;;;9.60;;
3726;SDS011;1879;45.876;12.300;2022-07-30T04:32:27;10.60;;;9.50;;
3726;SDS011;1879;45.876;12.300;2022-07-30T04:34:55;11.17;;;10.17;;
3726;SDS011;1879;45.876;12.300;2022-07-30T04:37:23;9.50;;;8.70;;
3726;SDS011;1879;45.876;12.300;2022-07-30T04:39:52;7.10;;;5.63;;
3726;SDS011;1879;45.876;12.300;2022-07-30T04:42:21;10.17;;;6.70;;
3726;SDS011;1879;45.876;12.300;2022-07-30T04:44:49;6.70;;;5.70;;
3726;SDS011;1879;45.876;12.300;2022-07-30T04:47:17;7.20;;;6.50;;
3726;SDS011;1879;45.876;12.300;2022-07-30T04:49:45;9.10;;;6.63;;
3726;SDS011;1879;45.876;12.300;2022-07-30T04:52:12;6.30;;;5.80;;
3726;SDS011;1879;45.876;12.300;2022-07-30T04:54:43;7.57;;;6.87;;
3726;SDS011;1879;45.876;12.300;2022-07-30T04:57:13;6.70;;;5.67;;
3726;SDS011;1879;45.876;12.300;2022-07-30T04:59:41;7.53;;;5.83;;
3726;SDS011;1879;45.876;12.300;2022-07-30T05:02:08;8.50;;;6.17;;
3726;SDS011;1879;45.876;12.300;2022-07-30T05:04:37;6.20;;;5.70;;
3726;SDS011;1879;45.876;12.300;2022-07-30T05:07:06;6.23;;;5.70;;
3726;SDS011;1879;45.876;12.300;2022-07-30T05:09:34;6.77;;;6.17;;
3726;SDS011;1879;45.876;12.300;2022-07-30T05:12:01;6.17;;;5.67;;
3726;SDS011;1879;45.876;12.300;2022-07-30T05:14:30;6.73;;;6.07;;
3726;SDS011;1879;45.876;12.300;2022-07-30T05:16:57;6.70;;;6.10;;
3726;SDS011;1879;45.876;12.300;2022-07-30T05:19:24;6.57;;;5.87;;
3726;SDS011;1879;45.876;12.300;2022-07-30T05:21:51;6.30;;;5.70;;
3726;SDS011;1879;45.876;12.300;2022-07-30T05:24:18;7.40;;;6.70;;
3726;SDS011;1879;45.876;12.300;2022-07-30T05:26:46;7.83;;;7.03;;
3726;SDS011;1879;45.876;12.300;2022-07-30T05:29:13;8.00;;;6.33;;
3726;SDS011;1879;45.876;12.300;2022-07-30T05:31:41;6.20;;;5.00;;
3726;SDS011;1879;45.876;12.300;2022-07-30T05:34:08;5.23;;;4.83;;
3726;SDS011;1879;45.876;12.300;2022-07-30T05:36:35;4.77;;;4.37;;
3726;SDS011;1879;45.876;12.300;2022-07-30T05:39:02;4.80;;;4.40;;
3726;SDS011;1879;45.876;12.300;2022-07-30T05:41:29;3.80;;;3.50;;
3726;SDS011;1879;45.876;12.300;2022-07-30T05:43:56;4.20;;;3.80;;
3726;SDS011;1879;45.876;12.300;2022-07-30T05:46:23;5.17;;;3.00;;
3726;SDS011;1879;45.876;12.300;2022-07-30T05:48:52;3.23;;;2.93;;
3726;SDS011;1879;45.876;12.300;2022-07-30T05:51:19;3.40;;;3.10;;
3726;SDS011;1879;45.876;12.300;2022-07-30T05:53:46;5.17;;;4.03;;
3726;SDS011;1879;45.876;12.300;2022-07-30T05:56:13;3.60;;;3.30;;
3726;SDS011;1879;45.876;12.300;2022-07-30T05:58:40;5.20;;;3.67;;
3726;SDS011;1879;45.876;12.300;2022-07-30T06:01:07;3.07;;;2.87;;
3726;SDS011;1879;45.876;12.300;2022-07-30T06:03:34;4.53;;;3.73;;
3726;SDS011;1879;45.876;12.300;2022-07-30T06:06:03;4.07;;;3.77;;
3726;SDS011;1879;45.876;12.300;2022-07-30T06:08:32;4.60;;;4.10;;
3726;SDS011;1879;45.876;12.300;2022-07-30T06:10:59;5.37;;;4.17;;
3726;SDS011;1879;45.876;12.300;2022-07-30T06:13:26;7.10;;;3.70;;
3726;SDS011;1879;45.876;12.300;2022-07-30T06:15:53;5.53;;;4.07;;
3726;SDS011;1879;45.876;12.300;2022-07-30T06:18:20;4.83;;;4.10;;
3726;SDS011;1879;45.876;12.300;2022-07-30T06:20:48;5.57;;;4.67;;
3726;SDS011;1879;45.876;12.300;2022-07-30T06:23:17;4.67;;;4.33;;
3726;SDS011;1879;45.876;12.300;2022-07-30T06:25:44;5.40;;;4.90;;
3726;SDS011;1879;45.876;12.300;2022-07-30T06:28:12;4.37;;;3.97;;
3726;SDS011;1879;45.876;12.300;2022-07-30T06:30:39;4.20;;;3.80;;
3726;SDS011;1879;45.876;12.300;2022-07-30T06:33:06;4.40;;;4.03;;
3726;SDS011;1879;45.876;12.300;2022-07-30T06:35:33;5.30;;;4.80;;
3726;SDS011;1879;45.876;12.300;2022-07-30T06:38:00;5.30;;;4.80;;
3726;SDS011;1879;45.876;12.300;2022-07-30T06:40:29;5.07;;;4.30;;
3726;SDS011;1879;45.876;12.300;2022-07-30T06:42:57;5.53;;;5.10;;
3726;SDS011;1879;45.876;12.300;2022-07-30T06:45:24;5.27;;;4.80;;
3726;SDS011;1879;45.876;12.300;2022-07-30T06:47:51;5.20;;;4.80;;
3726;SDS011;1879;45.876;12.300;2022-07-30T06:50:22;6.13;;;5.60;;
3726;SDS011;1879;45.876;12.300;2022-07-30T06:52:49;5.40;;;4.97;;
3726;SDS011;1879;45.876;12.300;2022-07-30T06:55:16;5.23;;;4.37;;
3726;SDS011;1879;45.876;12.300;2022-07-30T06:57:45;4.70;;;4.23;;
3726;SDS011;1879;45.876;12.300;2022-07-30T07:00:12;4.53;;;4.13;;
3726;SDS011;1879;45.876;12.300;2022-07-30T07:02:39;4.30;;;4.00;;
3726;SDS011;1879;45.876;12.300;2022-07-30T07:05:08;6.30;;;5.70;;
3726;SDS011;1879;45.876;12.300;2022-07-30T07:07:35;6.00;;;5.50;;
3726;SDS011;1879;45.876;12.300;2022-07-30T07:10:04;5.43;;;5.03;;
3726;SDS011;1879;45.876;12.300;2022-07-30T07:12:32;5.30;;;4.80;;
3726;SDS011;1879;45.876;12.300;2022-07-30T07:15:00;5.13;;;4.57;;
3726;SDS011;1879;45.876;12.300;2022-07-30T07:17:27;4.90;;;4.40;;
3726;SDS011;1879;45.876;12.300;2022-07-30T07:19:54;8.00;;;4.43;;
3726;SDS011;1879;45.876;12.300;2022-07-30T07:22:21;5.00;;;4.60;;
3726;SDS011;1879;45.876;12.300;2022-07-30T07:24:48;6.37;;;5.00;;
3726;SDS011;1879;45.876;12.300;2022-07-30T07:27:15;5.10;;;4.60;;
3726;SDS011;1879;45.876;12.300;2022-07-30T07:29:42;5.67;;;5.00;;
3726;SDS011;1879;45.876;12.300;2022-07-30T07:32:11;4.53;;;4.13;;
3726;SDS011;1879;45.876;12.300;2022-07-30T07:34:38;4.30;;;3.67;;
3726;SDS011;1879;45.876;12.300;2022-07-30T07:37:05;5.40;;;4.90;;
3726;SDS011;1879;45.876;12.300;2022-07-30T07:39:32;5.10;;;4.70;;
3726;SDS011;1879;45.876;12.300;2022-07-30T07:41:59;28.47;;;12.10;;
3726;SDS011;1879;45.876;12.300;2022-07-30T07:44:26;5.60;;;5.17;;
3726;SDS011;1879;45.876;12.300;2022-07-30T07:46:53;6.50;;;5.87;;
3726;SDS011;1879;45.876;12.300;2022-07-30T07:49:21;20.33;;;9.93;;
3726;SDS011;1879;45.876;12.300;2022-07-30T07:51:48;9.20;;;7.43;;
3726;SDS011;1879;45.876;12.300;2022-07-30T07:54:16;9.40;;;6.30;;
3726;SDS011;1879;45.876;12.300;2022-07-30T07:56:43;4.63;;;4.23;;
3726;SDS011;1879;45.876;12.300;2022-07-30T07:59:10;5.00;;;4.60;;
3726;SDS011;1879;45.876;12.300;2022-07-30T08:01:37;5.33;;;4.83;;
3726;SDS011;1879;45.876;12.300;2022-07-30T08:04:04;12.90;;;4.93;;
3726;SDS011;1879;45.876;12.300;2022-07-30T08:06:32;6.63;;;4.60;;
3726;SDS011;1879;45.876;12.300;2022-07-30T08:09:00;4.63;;;4.23;;
3726;SDS011;1879;45.876;12.300;2022-07-30T08:11:27;4.60;;;4.20;;
3726;SDS011;1879;45.876;12.300;2022-07-30T08:13:54;4.33;;;3.93;;
3726;SDS011;1879;45.876;12.300;2022-07-30T08:16:21;6.40;;;3.87;;
3726;SDS011;1879;45.876;12.300;2022-07-30T08:18:48;4.10;;;3.70;;
3726;SDS011;1879;45.876;12.300;2022-07-30T08:21:16;3.50;;;2.93;;
3726;SDS011;1879;45.876;12.300;2022-07-30T08:23:44;3.40;;;3.10;;
3726;SDS011;1879;45.876;12.300;2022-07-30T08:26:11;3.40;;;3.10;;
3726;SDS011;1879;45.876;12.300;2022-07-30T08:28:38;3.00;;;2.67;;
3726;SDS011;1879;45.876;12.300;2022-07-30T08:31:07;6.30;;;3.87;;
3726;SDS011;1879;45.876;12.300;2022-07-30T08:33:34;5.13;;;3.23;;
3726;SDS011;1879;45.876;12.300;2022-07-30T08:36:01;20.10;;;4.33;;
3726;SDS011;1879;45.876;12.300;2022-07-30T08:38:28;9.80;;;3.57;;
3726;SDS011;1879;45.876;12.300;2022-07-30T08:40:57;9.57;;;2.83;;
3726;SDS011;1879;45.876;12.300;2022-07-30T08:43:24;3.27;;;2.60;;
3726;SDS011;1879;45.876;12.300;2022-07-30T08:45:52;3.10;;;2.90;;
3726;SDS011;1879;45.876;12.300;2022-07-30T08:48:19;4.33;;;3.27;;
3726;SDS011;1879;45.876;12.300;2022-07-30T08:50:47;3.17;;;2.97;;
3726;SDS011;1879;45.876;12.300;2022-07-30T08:53:15;3.40;;;3.10;;
3726;SDS011;1879;45.876;12.300;2022-07-30T08:55:42;3.10;;;2.90;;
3726;SDS011;1879;45.876;12.300;2022-07-30T08:58:14;2.30;;;2.10;;
3726;SDS011;1879;45.876;12.300;2022-07-30T09:00:52;2.50;;;2.30;;
3726;SDS011;1879;45.876;12.300;2022-07-30T09:03:20;3.00;;;2.70;;
3726;SDS011;1879;45.876;12.300;2022-07-30T09:05:47;3.33;;;3.03;;
3726;SDS011;1879;45.876;12.300;2022-07-30T09:08:14;3.30;;;2.40;;
3726;SDS011;1879;45.876;12.300;2022-07-30T09:10:41;2.23;;;2.03;;
3726;SDS011;1879;45.876;12.300;2022-07-30T09:13:22;2.53;;;2.23;;
3726;SDS011;1879;45.876;12.300;2022-07-30T09:15:51;2.20;;;2.00;;
3726;SDS011;1879;45.876;12.300;2022-07-30T09:21:12;2.50;;;2.30;;
3726;SDS011;1879;45.876;12.300;2022-07-30T09:23:53;4.07;;;2.60;;
3726;SDS011;1879;45.876;12.300;2022-07-30T09:26:22;2.57;;;2.30;;
3726;SDS011;1879;45.876;12.300;2022-07-30T09:28:50;2.63;;;2.43;;
3726;SDS011;1879;45.876;12.300;2022-07-30T09:31:18;3.37;;;2.13;;
3726;SDS011;1879;45.876;12.300;2022-07-30T09:33:46;1.60;;;1.50;;
3726;SDS011;1879;45.876;12.300;2022-07-30T09:36:14;2.47;;;1.53;;
3726;SDS011;1879;45.876;12.300;2022-07-30T09:38:45;1.63;;;1.53;;
3726;SDS011;1879;45.876;12.300;2022-07-30T09:41:14;1.53;;;1.43;;
3726;SDS011;1879;45.876;12.300;2022-07-30T09:43:43;1.97;;;1.70;;
3726;SDS011;1879;45.876;12.300;2022-07-30T09:46:14;2.10;;;1.90;;
3726;SDS011;1879;45.876;12.300;2022-07-30T09:48:41;2.03;;;1.83;;
3726;SDS011;1879;45.876;12.300;2022-07-30T09:51:11;2.23;;;2.03;;
3726;SDS011;1879;45.876;12.300;2022-07-30T09:53:53;2.33;;;2.13;;
3726;SDS011;1879;45.876;12.300;2022-07-30T09:56:23;2.57;;;2.00;;
3726;SDS011;1879;45.876;12.300;2022-07-30T09:58:51;2.40;;;1.83;;
3726;SDS011;1879;45.876;12.300;2022-07-30T10:01:19;1.73;;;1.63;;
3726;SDS011;1879;45.876;12.300;2022-07-30T10:03:47;2.40;;;2.20;;
3726;SDS011;1879;45.876;12.300;2022-07-30T10:06:14;2.40;;;2.20;;
3726;SDS011;1879;45.876;12.300;2022-07-30T10:08:41;2.47;;;2.30;;
3726;SDS011;1879;45.876;12.300;2022-07-30T10:11:11;2.30;;;2.10;;
3726;SDS011;1879;45.876;12.300;2022-07-30T10:13:40;2.20;;;2.00;;
3726;SDS011;1879;45.876;12.300;2022-07-30T10:16:07;2.90;;;2.47;;
3726;SDS011;1879;45.876;12.300;2022-07-30T10:18:36;2.77;;;2.23;;
3726;SDS011;1879;45.876;12.300;2022-07-30T10:21:03;2.70;;;2.50;;
3726;SDS011;1879;45.876;12.300;2022-07-30T10:23:31;2.67;;;2.47;;
3726;SDS011;1879;45.876;12.300;2022-07-30T10:26:00;2.50;;;2.30;;
3726;SDS011;1879;45.876;12.300;2022-07-30T10:28:28;2.60;;;2.40;;
3726;SDS011;1879;45.876;12.300;2022-07-30T10:30:56;3.80;;;2.93;;
3726;SDS011;1879;45.876;12.300;2022-07-30T10:33:25;6.77;;;6.07;;
3726;SDS011;1879;45.876;12.300;2022-07-30T10:35:55;2.30;;;2.10;;
3726;SDS011;1879;45.876;12.300;2022-07-30T10:38:27;2.40;;;2.20;;
3726;SDS011;1879;45.876;12.300;2022-07-30T10:40:59;2.80;;;2.60;;
3726;SDS011;1879;45.876;12.300;2022-07-30T10:43:50;1.97;;;1.83;;
3726;SDS011;1879;45.876;12.300;2022-07-30T10:46:33;8.03;;;4.17;;
3726;SDS011;1879;45.876;12.300;2022-07-30T10:49:09;2.20;;;2.00;;
3726;SDS011;1879;45.876;12.300;2022-07-30T10:51:43;2.70;;;2.00;;
3726;SDS011;1879;45.876;12.300;2022-07-30T10:57:05;2.53;;;2.13;;
3726;SDS011;1879;45.876;12.300;2022-07-30T11:02:38;2.40;;;2.20;;
3726;SDS011;1879;45.876;12.300;2022-07-30T11:05:26;3.67;;;2.57;;
3726;SDS011;1879;45.876;12.300;2022-07-30T11:07:54;5.33;;;2.50;;
3726;SDS011;1879;45.876;12.300;2022-07-30T11:10:54;2.03;;;1.93;;
3726;SDS011;1879;45.876;12.300;2022-07-30T11:16:16;3.53;;;2.60;;
3726;SDS011;1879;45.876;12.300;2022-07-30T11:19:04;10.60;;;8.27;;
3726;SDS011;1879;45.876;12.300;2022-07-30T11:21:33;5.20;;;4.00;;
3726;SDS011;1879;45.876;12.300;2022-07-30T11:24:02;4.90;;;3.37;;
3726;SDS011;1879;45.876;12.300;2022-07-30T11:26:49;3.83;;;3.03;;
3726;SDS011;1879;45.876;12.300;2022-07-30T11:29:32;3.50;;;3.00;;
3726;SDS011;1879;45.876;12.300;2022-07-30T11:37:57;2.30;;;2.10;;
3726;SDS011;1879;45.876;12.300;2022-07-30T11:40:27;2.37;;;2.17;;
3726;SDS011;1879;45.876;12.300;2022-07-30T11:43:15;2.50;;;2.13;;
3726;SDS011;1879;45.876;12.300;2022-07-30T11:45:47;2.13;;;1.93;;
3726;SDS011;1879;45.876;12.300;2022-07-30T11:48:16;2.23;;;2.03;;
3726;SDS011;1879;45.876;12.300;2022-07-30T11:50:44;2.30;;;2.10;;
3726;SDS011;1879;45.876;12.300;2022-07-30T11:53:13;1.97;;;1.83;;
3726;SDS011;1879;45.876;12.300;2022-07-30T11:55:44;2.33;;;2.13;;
3726;SDS011;1879;45.876;12.300;2022-07-30T11:58:22;2.70;;;2.50;;
3726;SDS011;1879;45.876;12.300;2022-07-30T12:00:53;2.07;;;1.87;;
3726;SDS011;1879;45.876;12.300;2022-07-30T12:03:22;2.00;;;1.80;;
3726;SDS011;1879;45.876;12.300;2022-07-30T12:05:51;2.40;;;2.20;;
3726;SDS011;1879;45.876;12.300;2022-07-30T12:08:19;2.27;;;2.07;;
3726;SDS011;1879;45.876;12.300;2022-07-30T12:10:57;1.60;;;1.50;;
3726;SDS011;1879;45.876;12.300;2022-07-30T12:13:25;1.80;;;1.70;;
3726;SDS011;1879;45.876;12.300;2022-07-30T12:15:53;2.10;;;1.90;;
3726;SDS011;1879;45.876;12.300;2022-07-30T12:18:23;1.87;;;1.77;;
3726;SDS011;1879;45.876;12.300;2022-07-30T12:20:52;2.30;;;2.10;;
3726;SDS011;1879;45.876;12.300;2022-07-30T12:23:20;2.27;;;2.07;;
3726;SDS011;1879;45.876;12.300;2022-07-30T12:25:48;4.60;;;2.50;;
3726;SDS011;1879;45.876;12.300;2022-07-30T12:28:19;4.50;;;2.20;;
3726;SDS011;1879;45.876;12.300;2022-07-30T12:30:48;2.50;;;2.30;;
3726;SDS011;1879;45.876;12.300;2022-07-30T12:33:15;2.00;;;1.90;;
3726;SDS011;1879;45.876;12.300;2022-07-30T12:35:44;2.40;;;1.87;;
3726;SDS011;1879;45.876;12.300;2022-07-30T12:38:12;2.50;;;2.30;;
3726;SDS011;1879;45.876;12.300;2022-07-30T12:40:50;2.07;;;1.97;;
3726;SDS011;1879;45.876;12.300;2022-07-30T12:46:15;2.00;;;1.90;;
3726;SDS011;1879;45.876;12.300;2022-07-30T12:48:52;2.77;;;2.10;;
3726;SDS011;1879;45.876;12.300;2022-07-30T12:51:22;3.20;;;2.10;;
3726;SDS011;1879;45.876;12.300;2022-07-30T12:53:53;2.43;;;2.23;;
3726;SDS011;1879;45.876;12.300;2022-07-30T12:56:22;2.57;;;2.37;;
3726;SDS011;1879;45.876;12.300;2022-07-30T12:58:52;2.37;;;2.17;;
3726;SDS011;1879;45.876;12.300;2022-07-30T13:04:06;2.33;;;2.13;;
3726;SDS011;1879;45.876;12.300;2022-07-30T13:06:33;2.27;;;2.00;;
3726;SDS011;1879;45.876;12.300;2022-07-30T13:09:02;2.17;;;2.00;;
3726;SDS011;1879;45.876;12.300;2022-07-30T13:11:36;3.87;;;2.50;;
3726;SDS011;1879;45.876;12.300;2022-07-30T13:14:07;5.23;;;2.60;;
3726;SDS011;1879;45.876;12.300;2022-07-30T13:16:36;2.07;;;1.97;;
3726;SDS011;1879;45.876;12.300;2022-07-30T13:19:04;4.27;;;2.23;;
3726;SDS011;1879;45.876;12.300;2022-07-30T13:21:32;2.20;;;1.97;;
3726;SDS011;1879;45.876;12.300;2022-07-30T13:24:00;2.43;;;2.13;;
3726;SDS011;1879;45.876;12.300;2022-07-30T13:26:27;2.27;;;2.07;;
3726;SDS011;1879;45.876;12.300;2022-07-30T13:28:55;2.43;;;2.07;;
3726;SDS011;1879;45.876;12.300;2022-07-30T13:31:23;2.27;;;2.07;;
3726;SDS011;1879;45.876;12.300;2022-07-30T13:33:51;2.40;;;2.20;;
3726;SDS011;1879;45.876;12.300;2022-07-30T13:36:18;2.50;;;1.93;;
3726;SDS011;1879;45.876;12.300;2022-07-30T13:38:45;3.97;;;2.97;;
3726;SDS011;1879;45.876;12.300;2022-07-30T13:41:13;2.40;;;2.20;;
3726;SDS011;1879;45.876;12.300;2022-07-30T13:43:41;2.10;;;2.00;;
3726;SDS011;1879;45.876;12.300;2022-07-30T13:46:08;2.00;;;1.80;;
3726;SDS011;1879;45.876;12.300;2022-07-30T13:48:36;2.23;;;2.03;;
3726;SDS011;1879;45.876;12.300;2022-07-30T13:51:04;1.83;;;1.73;;
3726;SDS011;1879;45.876;12.300;2022-07-30T13:53:31;2.40;;;2.17;;
3726;SDS011;1879;45.876;12.300;2022-07-30T13:55:58;2.33;;;2.00;;
3726;SDS011;1879;45.876;12.300;2022-07-30T13:58:25;3.80;;;2.37;;
3726;SDS011;1879;45.876;12.300;2022-07-30T14:00:52;1.83;;;1.73;;
3726;SDS011;1879;45.876;12.300;2022-07-30T14:03:19;1.90;;;1.80;;
3726;SDS011;1879;45.876;12.300;2022-07-30T14:05:47;4.03;;;2.87;;
3726;SDS011;1879;45.876;12.300;2022-07-30T14:08:14;2.47;;;2.27;;
3726;SDS011;1879;45.876;12.300;2022-07-30T14:10:41;2.50;;;2.30;;
3726;SDS011;1879;45.876;12.300;2022-07-30T14:13:09;2.30;;;2.20;;
3726;SDS011;1879;45.876;12.300;2022-07-30T14:15:36;2.20;;;2.00;;
3726;SDS011;1879;45.876;12.300;2022-07-30T14:18:03;2.53;;;2.33;;
3726;SDS011;1879;45.876;12.300;2022-07-30T14:20:30;2.60;;;2.40;;
3726;SDS011;1879;45.876;12.300;2022-07-30T14:22:58;2.50;;;2.07;;
3726;SDS011;1879;45.876;12.300;2022-07-30T14:25:25;2.30;;;2.10;;
3726;SDS011;1879;45.876;12.300;2022-07-30T14:27:52;3.10;;;2.10;;
3726;SDS011;1879;45.876;12.300;2022-07-30T14:30:19;3.03;;;2.73;;
3726;SDS011;1879;45.876;12.300;2022-07-30T14:32:47;2.50;;;2.30;;
3726;SDS011;1879;45.876;12.300;2022-07-30T14:35:15;2.57;;;2.37;;
3726;SDS011;1879;45.876;12.300;2022-07-30T14:37:41;2.70;;;2.50;;
3726;SDS011;1879;45.876;12.300;2022-07-30T14:40:11;2.70;;;2.50;;
3726;SDS011;1879;45.876;12.300;2022-07-30T14:42:38;3.20;;;2.90;;
3726;SDS011;1879;45.876;12.300;2022-07-30T14:45:07;2.70;;;2.50;;
3726;SDS011;1879;45.876;12.300;2022-07-30T14:47:35;2.70;;;2.50;;
3726;SDS011;1879;45.876;12.300;2022-07-30T14:50:03;2.13;;;2.03;;
3726;SDS011;1879;45.876;12.300;2022-07-30T14:52:31;2.87;;;2.67;;
3726;SDS011;1879;45.876;12.300;2022-07-30T14:54:59;4.43;;;2.70;;
3726;SDS011;1879;45.876;12.300;2022-07-30T14:57:28;2.70;;;2.50;;
3726;SDS011;1879;45.876;12.300;2022-07-30T14:59:55;2.60;;;2.40;;
3726;SDS011;1879;45.876;12.300;2022-07-30T15:02:22;2.60;;;2.40;;
3726;SDS011;1879;45.876;12.300;2022-07-30T15:04:49;2.03;;;1.83;;
3726;SDS011;1879;45.876;12.300;2022-07-30T15:07:16;2.33;;;2.13;;
3726;SDS011;1879;45.876;12.300;2022-07-30T15:09:43;2.63;;;2.43;;
3726;SDS011;1879;45.876;12.300;2022-07-30T15:12:10;3.23;;;2.93;;
3726;SDS011;1879;45.876;12.300;2022-07-30T15:14:42;2.50;;;2.30;;
3726;SDS011;1879;45.876;12.300;2022-07-30T15:17:10;3.43;;;2.30;;
3726;SDS011;1879;45.876;12.300;2022-07-30T15:19:37;3.33;;;2.50;;
3726;SDS011;1879;45.876;12.300;2022-07-30T15:22:05;2.20;;;2.00;;
3726;SDS011;1879;45.876;12.300;2022-07-30T15:24:32;2.43;;;2.23;;
3726;SDS011;1879;45.876;12.300;2022-07-30T15:26:59;2.50;;;2.30;;
3726;SDS011;1879;45.876;12.300;2022-07-30T15:29:26;2.00;;;1.83;;
3726;SDS011;1879;45.876;12.300;2022-07-30T15:31:55;4.37;;;2.30;;
3726;SDS011;1879;45.876;12.300;2022-07-30T15:34:23;2.03;;;1.93;;